sensor_id;sensor_type;location;lat;lon;timestamp;P1;durP1;ratioP1;P2;durP2;ratioP2
68076;SDS011;54866;53.458;14.540;2022-10-04T00:01:42;6.60;;;1.70;;
68076;SDS011;54866;53.458;14.540;2022-10-04T00:04:16;10.90;;;2.90;;
68076;SDS011;54866;53.458;14.540;2022-10-04T00:06:51;6.50;;;2.20;;
68076;SDS011;54866;53.458;14.540;2022-10-04T00:09:30;11.20;;;1.80;;
68076;SDS011;54866;53.458;14.540;2022-10-04T00:12:03;6.30;;;2.30;;
68076;SDS011;54866;53.458;14.540;2022-10-04T00:14:34;6.40;;;1.80;;
68076;SDS011;54866;53.458;14.540;2022-10-04T00:17:09;8.20;;;3.00;;
68076;SDS011;54866;53.458;14.540;2022-10-04T00:19:46;9.70;;;2.10;;
68076;SDS011;54866;53.458;14.540;2022-10-04T00:22:17;6.00;;;2.30;;
68076;SDS011;54866;53.458;14.540;2022-10-04T00:31:08;9.80;;;2.20;;
68076;SDS011;54866;53.458;14.540;2022-10-04T00:33:41;9.30;;;2.60;;
68076;SDS011;54866;53.458;14.540;2022-10-04T00:39:14;7.50;;;2.40;;
68076;SDS011;54866;53.458;14.540;2022-10-04T00:42:22;8.40;;;2.60;;
68076;SDS011;54866;53.458;14.540;2022-10-04T00:45:15;9.80;;;2.90;;
68076;SDS011;54866;53.458;14.540;2022-10-04T00:48:07;10.00;;;2.50;;
68076;SDS011;54866;53.458;14.540;2022-10-04T00:51:18;10.80;;;2.90;;
68076;SDS011;54866;53.458;14.540;2022-10-04T00:53:55;8.60;;;2.20;;
68076;SDS011;54866;53.458;14.540;2022-10-04T00:56:33;9.40;;;3.10;;
68076;SDS011;54866;53.458;14.540;2022-10-04T00:59:19;9.30;;;3.70;;
68076;SDS011;54866;53.458;14.540;2022-10-04T01:01:57;8.60;;;2.50;;
68076;SDS011;54866;53.458;14.540;2022-10-04T01:04:34;9.10;;;2.70;;
68076;SDS011;54866;53.458;14.540;2022-10-04T01:07:08;9.20;;;2.40;;
68076;SDS011;54866;53.458;14.540;2022-10-04T01:09:45;9.00;;;3.10;;
68076;SDS011;54866;53.458;14.540;2022-10-04T01:12:22;10.50;;;3.70;;
68076;SDS011;54866;53.458;14.540;2022-10-04T01:15:02;13.60;;;3.50;;
68076;SDS011;54866;53.458;14.540;2022-10-04T01:17:37;5.40;;;2.80;;
68076;SDS011;54866;53.458;14.540;2022-10-04T01:20:20;8.80;;;2.70;;
68076;SDS011;54866;53.458;14.540;2022-10-04T01:22:56;18.50;;;3.30;;
68076;SDS011;54866;53.458;14.540;2022-10-04T01:28:17;9.00;;;3.50;;
68076;SDS011;54866;53.458;14.540;2022-10-04T01:30:47;9.00;;;3.40;;
68076;SDS011;54866;53.458;14.540;2022-10-04T01:33:18;8.70;;;3.00;;
68076;SDS011;54866;53.458;14.540;2022-10-04T01:35:48;7.50;;;3.50;;
68076;SDS011;54866;53.458;14.540;2022-10-04T01:38:18;9.90;;;3.00;;
68076;SDS011;54866;53.458;14.540;2022-10-04T01:40:50;9.50;;;3.90;;
68076;SDS011;54866;53.458;14.540;2022-10-04T01:43:26;14.30;;;4.00;;
68076;SDS011;54866;53.458;14.540;2022-10-04T01:46:01;13.00;;;4.60;;
68076;SDS011;54866;53.458;14.540;2022-10-04T01:48:35;16.30;;;5.00;;
68076;SDS011;54866;53.458;14.540;2022-10-04T01:51:10;11.40;;;4.50;;
68076;SDS011;54866;53.458;14.540;2022-10-04T01:53:45;10.80;;;4.50;;
68076;SDS011;54866;53.458;14.540;2022-10-04T01:56:18;13.30;;;3.90;;
68076;SDS011;54866;53.458;14.540;2022-10-04T01:58:52;9.90;;;3.80;;
68076;SDS011;54866;53.458;14.540;2022-10-04T02:01:26;10.30;;;3.10;;
68076;SDS011;54866;53.458;14.540;2022-10-04T02:04:01;11.80;;;5.20;;
68076;SDS011;54866;53.458;14.540;2022-10-04T02:06:35;9.70;;;3.00;;
68076;SDS011;54866;53.458;14.540;2022-10-04T02:09:09;11.10;;;4.60;;
68076;SDS011;54866;53.458;14.540;2022-10-04T02:11:44;9.30;;;3.60;;
68076;SDS011;54866;53.458;14.540;2022-10-04T02:14:19;11.70;;;4.20;;
68076;SDS011;54866;53.458;14.540;2022-10-04T02:16:52;9.90;;;3.60;;
68076;SDS011;54866;53.458;14.540;2022-10-04T02:19:22;10.10;;;4.10;;
68076;SDS011;54866;53.458;14.540;2022-10-04T02:21:55;11.00;;;3.50;;
68076;SDS011;54866;53.458;14.540;2022-10-04T02:24:25;14.40;;;3.30;;
68076;SDS011;54866;53.458;14.540;2022-10-04T02:26:56;6.20;;;2.40;;
68076;SDS011;54866;53.458;14.540;2022-10-04T02:29:26;8.20;;;3.10;;
68076;SDS011;54866;53.458;14.540;2022-10-04T02:31:56;7.50;;;2.70;;
68076;SDS011;54866;53.458;14.540;2022-10-04T02:34:44;10.70;;;3.50;;
68076;SDS011;54866;53.458;14.540;2022-10-04T02:37:15;14.40;;;3.60;;
68076;SDS011;54866;53.458;14.540;2022-10-04T02:39:50;12.00;;;3.10;;
68076;SDS011;54866;53.458;14.540;2022-10-04T02:42:27;10.20;;;3.70;;
68076;SDS011;54866;53.458;14.540;2022-10-04T02:45:04;9.30;;;3.30;;
68076;SDS011;54866;53.458;14.540;2022-10-04T02:47:43;9.50;;;3.70;;
68076;SDS011;54866;53.458;14.540;2022-10-04T02:50:20;9.50;;;3.30;;
68076;SDS011;54866;53.458;14.540;2022-10-04T02:52:56;10.80;;;3.30;;
68076;SDS011;54866;53.458;14.540;2022-10-04T02:55:45;9.00;;;3.30;;
68076;SDS011;54866;53.458;14.540;2022-10-04T02:58:16;11.00;;;2.90;;
68076;SDS011;54866;53.458;14.540;2022-10-04T03:03:20;10.50;;;3.10;;
68076;SDS011;54866;53.458;14.540;2022-10-04T03:05:57;11.20;;;2.90;;
68076;SDS011;54866;53.458;14.540;2022-10-04T03:08:32;12.80;;;3.10;;
68076;SDS011;54866;53.458;14.540;2022-10-04T03:11:11;9.20;;;3.70;;
68076;SDS011;54866;53.458;14.540;2022-10-04T03:13:45;12.60;;;4.40;;
68076;SDS011;54866;53.458;14.540;2022-10-04T03:18:44;9.00;;;2.80;;
68076;SDS011;54866;53.458;14.540;2022-10-04T03:21:16;13.80;;;3.70;;
68076;SDS011;54866;53.458;14.540;2022-10-04T03:23:48;10.20;;;3.90;;
68076;SDS011;54866;53.458;14.540;2022-10-04T03:26:23;8.40;;;3.30;;
68076;SDS011;54866;53.458;14.540;2022-10-04T03:28:57;10.10;;;3.90;;
68076;SDS011;54866;53.458;14.540;2022-10-04T03:31:27;11.10;;;4.50;;
68076;SDS011;54866;53.458;14.540;2022-10-04T03:34:00;13.90;;;4.90;;
68076;SDS011;54866;53.458;14.540;2022-10-04T03:36:30;16.70;;;3.50;;
68076;SDS011;54866;53.458;14.540;2022-10-04T03:39:01;10.20;;;3.80;;
68076;SDS011;54866;53.458;14.540;2022-10-04T03:41:38;16.50;;;5.50;;
68076;SDS011;54866;53.458;14.540;2022-10-04T03:44:12;13.70;;;5.10;;
68076;SDS011;54866;53.458;14.540;2022-10-04T03:46:44;15.00;;;4.10;;
68076;SDS011;54866;53.458;14.540;2022-10-04T03:49:16;8.70;;;3.80;;
68076;SDS011;54866;53.458;14.540;2022-10-04T03:51:52;12.50;;;3.70;;
68076;SDS011;54866;53.458;14.540;2022-10-04T03:54:22;9.50;;;3.70;;
68076;SDS011;54866;53.458;14.540;2022-10-04T03:56:53;11.40;;;3.70;;
68076;SDS011;54866;53.458;14.540;2022-10-04T03:59:25;9.20;;;3.50;;
68076;SDS011;54866;53.458;14.540;2022-10-04T04:02:02;14.40;;;3.90;;
68076;SDS011;54866;53.458;14.540;2022-10-04T04:04:39;13.80;;;3.40;;
68076;SDS011;54866;53.458;14.540;2022-10-04T04:07:18;11.10;;;3.40;;
68076;SDS011;54866;53.458;14.540;2022-10-04T04:09:53;11.40;;;3.80;;
68076;SDS011;54866;53.458;14.540;2022-10-04T04:12:32;10.60;;;3.80;;
68076;SDS011;54866;53.458;14.540;2022-10-04T04:15:07;11.50;;;3.80;;
68076;SDS011;54866;53.458;14.540;2022-10-04T04:17:39;11.80;;;3.90;;
68076;SDS011;54866;53.458;14.540;2022-10-04T04:20:16;7.10;;;2.90;;
68076;SDS011;54866;53.458;14.540;2022-10-04T04:22:54;8.90;;;3.70;;
68076;SDS011;54866;53.458;14.540;2022-10-04T04:25:30;12.50;;;3.90;;
68076;SDS011;54866;53.458;14.540;2022-10-04T04:28:06;15.10;;;4.30;;
68076;SDS011;54866;53.458;14.540;2022-10-04T04:33:20;14.20;;;3.50;;
68076;SDS011;54866;53.458;14.540;2022-10-04T04:35:57;8.90;;;3.30;;
68076;SDS011;54866;53.458;14.540;2022-10-04T04:38:32;15.30;;;4.40;;
68076;SDS011;54866;53.458;14.540;2022-10-04T04:41:22;12.20;;;4.00;;
68076;SDS011;54866;53.458;14.540;2022-10-04T04:43:53;10.70;;;4.40;;
68076;SDS011;54866;53.458;14.540;2022-10-04T04:46:23;9.40;;;3.90;;
68076;SDS011;54866;53.458;14.540;2022-10-04T04:48:56;11.20;;;3.80;;
68076;SDS011;54866;53.458;14.540;2022-10-04T04:51:29;10.80;;;3.60;;
68076;SDS011;54866;53.458;14.540;2022-10-04T04:54:01;10.30;;;4.00;;
68076;SDS011;54866;53.458;14.540;2022-10-04T04:56:34;8.90;;;3.70;;
68076;SDS011;54866;53.458;14.540;2022-10-04T04:59:05;12.40;;;4.20;;
68076;SDS011;54866;53.458;14.540;2022-10-04T05:01:41;13.50;;;4.00;;
68076;SDS011;54866;53.458;14.540;2022-10-04T05:04:16;12.30;;;4.00;;
68076;SDS011;54866;53.458;14.540;2022-10-04T05:06:57;10.50;;;4.50;;
68076;SDS011;54866;53.458;14.540;2022-10-04T05:09:30;9.30;;;3.90;;
68076;SDS011;54866;53.458;14.540;2022-10-04T05:12:03;10.60;;;3.60;;
68076;SDS011;54866;53.458;14.540;2022-10-04T05:14:38;10.40;;;4.00;;
68076;SDS011;54866;53.458;14.540;2022-10-04T05:17:16;10.30;;;3.80;;
68076;SDS011;54866;53.458;14.540;2022-10-04T05:19:49;9.90;;;4.30;;
68076;SDS011;54866;53.458;14.540;2022-10-04T05:24:52;11.60;;;4.50;;
68076;SDS011;54866;53.458;14.540;2022-10-04T05:27:26;10.60;;;4.00;;
68076;SDS011;54866;53.458;14.540;2022-10-04T05:30:02;14.30;;;4.40;;
68076;SDS011;54866;53.458;14.540;2022-10-04T05:32:39;10.20;;;4.00;;
68076;SDS011;54866;53.458;14.540;2022-10-04T05:35:21;9.30;;;3.80;;
68076;SDS011;54866;53.458;14.540;2022-10-04T05:37:56;8.00;;;4.70;;
68076;SDS011;54866;53.458;14.540;2022-10-04T05:40:34;10.20;;;4.00;;
68076;SDS011;54866;53.458;14.540;2022-10-04T05:43:23;13.20;;;4.50;;
68076;SDS011;54866;53.458;14.540;2022-10-04T05:46:16;9.10;;;3.80;;
68076;SDS011;54866;53.458;14.540;2022-10-04T05:48:50;10.60;;;3.90;;
68076;SDS011;54866;53.458;14.540;2022-10-04T05:51:23;7.40;;;4.10;;
68076;SDS011;54866;53.458;14.540;2022-10-04T05:53:55;10.20;;;3.60;;
68076;SDS011;54866;53.458;14.540;2022-10-04T05:56:35;8.60;;;3.60;;
68076;SDS011;54866;53.458;14.540;2022-10-04T05:59:33;9.10;;;3.70;;
68076;SDS011;54866;53.458;14.540;2022-10-04T06:02:15;8.40;;;4.10;;
68076;SDS011;54866;53.458;14.540;2022-10-04T06:04:56;10.10;;;3.90;;
68076;SDS011;54866;53.458;14.540;2022-10-04T06:07:38;9.30;;;4.50;;
68076;SDS011;54866;53.458;14.540;2022-10-04T06:10:22;8.30;;;3.30;;
68076;SDS011;54866;53.458;14.540;2022-10-04T06:13:13;11.00;;;2.90;;
68076;SDS011;54866;53.458;14.540;2022-10-04T06:15:57;8.40;;;2.90;;
68076;SDS011;54866;53.458;14.540;2022-10-04T06:24:33;5.60;;;2.50;;
68076;SDS011;54866;53.458;14.540;2022-10-04T06:27:07;9.50;;;3.00;;
68076;SDS011;54866;53.458;14.540;2022-10-04T06:29:45;6.30;;;2.20;;
68076;SDS011;54866;53.458;14.540;2022-10-04T06:44:35;5.90;;;2.30;;
68076;SDS011;54866;53.458;14.540;2022-10-04T06:47:34;6.50;;;2.10;;
68076;SDS011;54866;53.458;14.540;2022-10-04T06:50:17;6.40;;;2.20;;
68076;SDS011;54866;53.458;14.540;2022-10-04T06:53:05;6.10;;;1.90;;
68076;SDS011;54866;53.458;14.540;2022-10-04T06:55:50;6.30;;;2.70;;
68076;SDS011;54866;53.458;14.540;2022-10-04T06:58:48;5.50;;;1.60;;
68076;SDS011;54866;53.458;14.540;2022-10-04T07:01:34;5.20;;;1.60;;
68076;SDS011;54866;53.458;14.540;2022-10-04T07:04:09;5.80;;;1.70;;
68076;SDS011;54866;53.458;14.540;2022-10-04T07:06:49;4.70;;;1.80;;
68076;SDS011;54866;53.458;14.540;2022-10-04T07:09:47;7.30;;;2.10;;
68076;SDS011;54866;53.458;14.540;2022-10-04T07:12:20;5.50;;;2.20;;
68076;SDS011;54866;53.458;14.540;2022-10-04T07:14:50;7.60;;;2.10;;
68076;SDS011;54866;53.458;14.540;2022-10-04T07:17:27;6.60;;;1.60;;
68076;SDS011;54866;53.458;14.540;2022-10-04T07:19:59;7.40;;;1.80;;
68076;SDS011;54866;53.458;14.540;2022-10-04T07:22:33;6.50;;;2.40;;
68076;SDS011;54866;53.458;14.540;2022-10-04T07:25:12;7.90;;;2.10;;
68076;SDS011;54866;53.458;14.540;2022-10-04T07:27:48;4.70;;;1.70;;
68076;SDS011;54866;53.458;14.540;2022-10-04T07:33:14;6.60;;;1.70;;
68076;SDS011;54866;53.458;14.540;2022-10-04T07:35:49;5.90;;;1.60;;
68076;SDS011;54866;53.458;14.540;2022-10-04T07:38:25;5.10;;;1.60;;
68076;SDS011;54866;53.458;14.540;2022-10-04T07:41:05;6.10;;;1.60;;
68076;SDS011;54866;53.458;14.540;2022-10-04T07:43:44;6.00;;;2.20;;
68076;SDS011;54866;53.458;14.540;2022-10-04T07:46:34;7.50;;;2.00;;
68076;SDS011;54866;53.458;14.540;2022-10-04T07:49:13;8.50;;;2.00;;
68076;SDS011;54866;53.458;14.540;2022-10-04T07:54:21;5.90;;;2.30;;
68076;SDS011;54866;53.458;14.540;2022-10-04T07:56:59;6.40;;;2.10;;
68076;SDS011;54866;53.458;14.540;2022-10-04T07:59:37;3.80;;;1.70;;
68076;SDS011;54866;53.458;14.540;2022-10-04T08:02:16;6.00;;;1.70;;
68076;SDS011;54866;53.458;14.540;2022-10-04T08:04:56;4.30;;;1.50;;
68076;SDS011;54866;53.458;14.540;2022-10-04T08:07:42;5.60;;;2.20;;
68076;SDS011;54866;53.458;14.540;2022-10-04T08:10:28;6.40;;;2.00;;
68076;SDS011;54866;53.458;14.540;2022-10-04T08:13:03;5.10;;;1.90;;
68076;SDS011;54866;53.458;14.540;2022-10-04T08:15:43;6.00;;;2.40;;
68076;SDS011;54866;53.458;14.540;2022-10-04T08:18:26;6.40;;;2.20;;
68076;SDS011;54866;53.458;14.540;2022-10-04T08:21:15;7.50;;;2.80;;
68076;SDS011;54866;53.458;14.540;2022-10-04T08:23:55;5.80;;;2.20;;
68076;SDS011;54866;53.458;14.540;2022-10-04T08:26:44;5.80;;;1.60;;
68076;SDS011;54866;53.458;14.540;2022-10-04T08:32:28;6.40;;;2.00;;
68076;SDS011;54866;53.458;14.540;2022-10-04T08:35:14;6.50;;;2.60;;
68076;SDS011;54866;53.458;14.540;2022-10-04T08:59:53;5.10;;;2.00;;
68076;SDS011;54866;53.458;14.540;2022-10-04T09:05:47;5.80;;;1.70;;
68076;SDS011;54866;53.458;14.540;2022-10-04T09:11:46;5.80;;;1.90;;
68076;SDS011;54866;53.458;14.540;2022-10-04T09:14:36;4.20;;;1.60;;
68076;SDS011;54866;53.458;14.540;2022-10-04T09:17:33;5.10;;;1.70;;
68076;SDS011;54866;53.458;14.540;2022-10-04T09:20:19;5.50;;;1.60;;
68076;SDS011;54866;53.458;14.540;2022-10-04T09:23:03;5.00;;;1.70;;
68076;SDS011;54866;53.458;14.540;2022-10-04T09:25:45;4.10;;;1.20;;
68076;SDS011;54866;53.458;14.540;2022-10-04T09:31:41;5.80;;;1.90;;
68076;SDS011;54866;53.458;14.540;2022-10-04T09:34:29;4.10;;;1.50;;
68076;SDS011;54866;53.458;14.540;2022-10-04T09:43:41;5.80;;;2.10;;
68076;SDS011;54866;53.458;14.540;2022-10-04T09:46:43;4.60;;;1.20;;
68076;SDS011;54866;53.458;14.540;2022-10-04T09:49:27;4.00;;;1.60;;
68076;SDS011;54866;53.458;14.540;2022-10-04T09:52:19;4.40;;;1.40;;
68076;SDS011;54866;53.458;14.540;2022-10-04T09:55:11;5.00;;;1.80;;
68076;SDS011;54866;53.458;14.540;2022-10-04T09:57:59;5.30;;;1.50;;
68076;SDS011;54866;53.458;14.540;2022-10-04T10:00:49;5.70;;;1.90;;
68076;SDS011;54866;53.458;14.540;2022-10-04T10:03:49;4.60;;;1.70;;
68076;SDS011;54866;53.458;14.540;2022-10-04T10:12:34;3.60;;;1.30;;
68076;SDS011;54866;53.458;14.540;2022-10-04T10:15:33;3.90;;;1.30;;
68076;SDS011;54866;53.458;14.540;2022-10-04T10:18:22;3.70;;;1.10;;
68076;SDS011;54866;53.458;14.540;2022-10-04T10:24:05;3.80;;;1.50;;
68076;SDS011;54866;53.458;14.540;2022-10-04T10:26:54;4.70;;;1.60;;
68076;SDS011;54866;53.458;14.540;2022-10-04T10:30:00;4.40;;;1.30;;
68076;SDS011;54866;53.458;14.540;2022-10-04T10:32:57;3.00;;;1.10;;
68076;SDS011;54866;53.458;14.540;2022-10-04T10:36:09;4.40;;;1.70;;
68076;SDS011;54866;53.458;14.540;2022-10-04T10:38:52;4.10;;;1.30;;
68076;SDS011;54866;53.458;14.540;2022-10-04T10:41:46;4.20;;;1.20;;
68076;SDS011;54866;53.458;14.540;2022-10-04T10:44:35;3.70;;;1.50;;
68076;SDS011;54866;53.458;14.540;2022-10-04T10:47:21;5.90;;;1.60;;
68076;SDS011;54866;53.458;14.540;2022-10-04T10:50:05;3.70;;;1.00;;
68076;SDS011;54866;53.458;14.540;2022-10-04T10:53:18;6.20;;;1.40;;
68076;SDS011;54866;53.458;14.540;2022-10-04T10:56:21;3.60;;;1.00;;
68076;SDS011;54866;53.458;14.540;2022-10-04T10:59:21;5.30;;;1.40;;
68076;SDS011;54866;53.458;14.540;2022-10-04T11:02:12;4.00;;;1.50;;
68076;SDS011;54866;53.458;14.540;2022-10-04T11:05:13;4.00;;;1.10;;
68076;SDS011;54866;53.458;14.540;2022-10-04T11:07:56;2.50;;;1.10;;
68076;SDS011;54866;53.458;14.540;2022-10-04T11:10:50;4.80;;;1.90;;
68076;SDS011;54866;53.458;14.540;2022-10-04T11:17:04;4.40;;;1.20;;
68076;SDS011;54866;53.458;14.540;2022-10-04T11:20:05;4.90;;;1.40;;
68076;SDS011;54866;53.458;14.540;2022-10-04T11:23:17;5.00;;;1.40;;
68076;SDS011;54866;53.458;14.540;2022-10-04T11:29:05;5.80;;;1.50;;
68076;SDS011;54866;53.458;14.540;2022-10-04T11:40:46;5.60;;;1.30;;
68076;SDS011;54866;53.458;14.540;2022-10-04T11:43:45;3.70;;;1.30;;
68076;SDS011;54866;53.458;14.540;2022-10-04T11:46:42;4.40;;;1.70;;
68076;SDS011;54866;53.458;14.540;2022-10-04T11:52:28;4.90;;;1.70;;
68076;SDS011;54866;53.458;14.540;2022-10-04T11:58:26;3.70;;;1.80;;
68076;SDS011;54866;53.458;14.540;2022-10-04T12:01:10;5.60;;;1.60;;
68076;SDS011;54866;53.458;14.540;2022-10-04T12:06:57;4.40;;;1.70;;
68076;SDS011;54866;53.458;14.540;2022-10-04T12:09:40;6.80;;;1.80;;
68076;SDS011;54866;53.458;14.540;2022-10-04T12:12:30;4.10;;;1.60;;
68076;SDS011;54866;53.458;14.540;2022-10-04T12:15:34;4.40;;;2.10;;
68076;SDS011;54866;53.458;14.540;2022-10-04T12:18:21;8.80;;;2.30;;
68076;SDS011;54866;53.458;14.540;2022-10-04T12:21:29;5.10;;;2.00;;
68076;SDS011;54866;53.458;14.540;2022-10-04T12:24:21;5.80;;;2.20;;
68076;SDS011;54866;53.458;14.540;2022-10-04T12:30:22;4.50;;;2.00;;
68076;SDS011;54866;53.458;14.540;2022-10-04T12:33:02;5.50;;;1.70;;
68076;SDS011;54866;53.458;14.540;2022-10-04T12:35:46;6.40;;;2.60;;
68076;SDS011;54866;53.458;14.540;2022-10-04T12:38:34;6.20;;;2.40;;
68076;SDS011;54866;53.458;14.540;2022-10-04T12:41:23;4.10;;;1.60;;
68076;SDS011;54866;53.458;14.540;2022-10-04T12:44:04;4.70;;;2.00;;
68076;SDS011;54866;53.458;14.540;2022-10-04T12:46:51;3.90;;;2.00;;
68076;SDS011;54866;53.458;14.540;2022-10-04T12:49:30;5.80;;;1.90;;
68076;SDS011;54866;53.458;14.540;2022-10-04T12:52:15;5.90;;;2.10;;
68076;SDS011;54866;53.458;14.540;2022-10-04T12:54:50;5.60;;;1.70;;
68076;SDS011;54866;53.458;14.540;2022-10-04T12:57:29;4.90;;;1.50;;
68076;SDS011;54866;53.458;14.540;2022-10-04T13:00:15;6.00;;;1.50;;
68076;SDS011;54866;53.458;14.540;2022-10-04T13:02:59;5.30;;;2.00;;
68076;SDS011;54866;53.458;14.540;2022-10-04T13:05:46;2.70;;;1.30;;
68076;SDS011;54866;53.458;14.540;2022-10-04T13:08:34;3.00;;;1.20;;
68076;SDS011;54866;53.458;14.540;2022-10-04T13:11:20;5.60;;;1.20;;
68076;SDS011;54866;53.458;14.540;2022-10-04T13:14:15;5.10;;;1.60;;
68076;SDS011;54866;53.458;14.540;2022-10-04T13:16:56;4.60;;;1.70;;
68076;SDS011;54866;53.458;14.540;2022-10-04T13:19:33;4.30;;;1.30;;
68076;SDS011;54866;53.458;14.540;2022-10-04T13:22:25;4.10;;;1.30;;
68076;SDS011;54866;53.458;14.540;2022-10-04T13:25:14;4.30;;;1.60;;
68076;SDS011;54866;53.458;14.540;2022-10-04T13:30:28;7.00;;;2.30;;
68076;SDS011;54866;53.458;14.540;2022-10-04T13:33:09;4.50;;;1.90;;
68076;SDS011;54866;53.458;14.540;2022-10-04T13:35:50;3.80;;;1.60;;
68076;SDS011;54866;53.458;14.540;2022-10-04T13:41:16;5.50;;;1.60;;
68076;SDS011;54866;53.458;14.540;2022-10-04T13:44:03;4.80;;;1.60;;
68076;SDS011;54866;53.458;14.540;2022-10-04T13:46:44;4.10;;;1.30;;
68076;SDS011;54866;53.458;14.540;2022-10-04T13:49:28;5.70;;;1.50;;
68076;SDS011;54866;53.458;14.540;2022-10-04T13:52:09;4.80;;;1.50;;
68076;SDS011;54866;53.458;14.540;2022-10-04T13:55:18;5.40;;;1.20;;
68076;SDS011;54866;53.458;14.540;2022-10-04T13:58:15;3.50;;;0.90;;
68076;SDS011;54866;53.458;14.540;2022-10-04T14:04:02;3.00;;;1.20;;
68076;SDS011;54866;53.458;14.540;2022-10-04T14:06:49;4.80;;;1.30;;
68076;SDS011;54866;53.458;14.540;2022-10-04T14:12:44;3.10;;;1.50;;
68076;SDS011;54866;53.458;14.540;2022-10-04T14:15:47;3.80;;;1.50;;
68076;SDS011;54866;53.458;14.540;2022-10-04T14:24:51;4.00;;;1.20;;
68076;SDS011;54866;53.458;14.540;2022-10-04T14:30:58;4.50;;;1.50;;
68076;SDS011;54866;53.458;14.540;2022-10-04T14:33:48;3.00;;;1.30;;
68076;SDS011;54866;53.458;14.540;2022-10-04T14:39:58;4.60;;;1.40;;
68076;SDS011;54866;53.458;14.540;2022-10-04T14:42:49;5.70;;;2.10;;
68076;SDS011;54866;53.458;14.540;2022-10-04T14:45:43;5.60;;;1.50;;
68076;SDS011;54866;53.458;14.540;2022-10-04T14:48:45;4.20;;;1.40;;
68076;SDS011;54866;53.458;14.540;2022-10-04T14:51:33;4.20;;;1.40;;
68076;SDS011;54866;53.458;14.540;2022-10-04T14:54:11;6.50;;;1.50;;
68076;SDS011;54866;53.458;14.540;2022-10-04T14:59:32;4.70;;;1.30;;
68076;SDS011;54866;53.458;14.540;2022-10-04T15:02:31;4.20;;;1.40;;
68076;SDS011;54866;53.458;14.540;2022-10-04T15:05:29;3.90;;;1.80;;
68076;SDS011;54866;53.458;14.540;2022-10-04T15:11:03;2.50;;;1.50;;
68076;SDS011;54866;53.458;14.540;2022-10-04T15:13:37;3.80;;;1.80;;
68076;SDS011;54866;53.458;14.540;2022-10-04T15:16:28;2.60;;;1.40;;
68076;SDS011;54866;53.458;14.540;2022-10-04T15:21:44;3.40;;;1.50;;
68076;SDS011;54866;53.458;14.540;2022-10-04T15:24:29;4.80;;;1.90;;
68076;SDS011;54866;53.458;14.540;2022-10-04T15:33:07;3.70;;;1.60;;
68076;SDS011;54866;53.458;14.540;2022-10-04T15:36:02;5.10;;;1.80;;
68076;SDS011;54866;53.458;14.540;2022-10-04T15:38:52;5.40;;;1.50;;
68076;SDS011;54866;53.458;14.540;2022-10-04T15:41:31;4.40;;;1.60;;
68076;SDS011;54866;53.458;14.540;2022-10-04T15:44:19;4.90;;;1.50;;
68076;SDS011;54866;53.458;14.540;2022-10-04T15:47:11;6.60;;;2.50;;
68076;SDS011;54866;53.458;14.540;2022-10-04T15:49:52;4.30;;;1.90;;
68076;SDS011;54866;53.458;14.540;2022-10-04T15:58:53;5.50;;;2.00;;
68076;SDS011;54866;53.458;14.540;2022-10-04T16:01:46;4.80;;;2.70;;
68076;SDS011;54866;53.458;14.540;2022-10-04T16:04:40;5.90;;;2.40;;
68076;SDS011;54866;53.458;14.540;2022-10-04T16:07:21;4.70;;;2.50;;
68076;SDS011;54866;53.458;14.540;2022-10-04T16:10:13;4.40;;;2.50;;
68076;SDS011;54866;53.458;14.540;2022-10-04T16:13:02;4.30;;;2.40;;
68076;SDS011;54866;53.458;14.540;2022-10-04T16:15:47;5.50;;;2.60;;
68076;SDS011;54866;53.458;14.540;2022-10-04T16:18:52;4.00;;;2.00;;
68076;SDS011;54866;53.458;14.540;2022-10-04T16:21:36;5.30;;;2.60;;
68076;SDS011;54866;53.458;14.540;2022-10-04T16:30:17;6.70;;;2.40;;
68076;SDS011;54866;53.458;14.540;2022-10-04T16:36:01;5.60;;;2.50;;
68076;SDS011;54866;53.458;14.540;2022-10-04T16:38:35;5.00;;;2.50;;
68076;SDS011;54866;53.458;14.540;2022-10-04T16:41:30;4.30;;;2.60;;
68076;SDS011;54866;53.458;14.540;2022-10-04T16:44:08;7.30;;;2.70;;
68076;SDS011;54866;53.458;14.540;2022-10-04T16:47:14;6.30;;;2.70;;
68076;SDS011;54866;53.458;14.540;2022-10-04T16:49:51;5.00;;;2.40;;
68076;SDS011;54866;53.458;14.540;2022-10-04T16:52:41;6.60;;;2.90;;
68076;SDS011;54866;53.458;14.540;2022-10-04T16:55:32;8.80;;;4.00;;
68076;SDS011;54866;53.458;14.540;2022-10-04T17:07:17;7.40;;;4.40;;
68076;SDS011;54866;53.458;14.540;2022-10-04T17:15:10;7.70;;;4.50;;
68076;SDS011;54866;53.458;14.540;2022-10-04T17:17:55;9.30;;;4.50;;
68076;SDS011;54866;53.458;14.540;2022-10-04T17:20:36;9.60;;;5.10;;
68076;SDS011;54866;53.458;14.540;2022-10-04T17:23:21;12.60;;;9.40;;
68076;SDS011;54866;53.458;14.540;2022-10-04T17:26:11;14.00;;;12.10;;
68076;SDS011;54866;53.458;14.540;2022-10-04T17:28:54;15.10;;;13.50;;
68076;SDS011;54866;53.458;14.540;2022-10-04T17:31:27;14.10;;;10.60;;
68076;SDS011;54866;53.458;14.540;2022-10-04T17:34:12;10.60;;;7.00;;
68076;SDS011;54866;53.458;14.540;2022-10-04T17:36:50;11.00;;;9.80;;
68076;SDS011;54866;53.458;14.540;2022-10-04T17:39:35;12.20;;;8.20;;
68076;SDS011;54866;53.458;14.540;2022-10-04T17:42:18;10.40;;;7.20;;
68076;SDS011;54866;53.458;14.540;2022-10-04T17:47:56;8.90;;;6.50;;
68076;SDS011;54866;53.458;14.540;2022-10-04T17:50:49;9.40;;;6.70;;
68076;SDS011;54866;53.458;14.540;2022-10-04T17:53:44;8.80;;;5.90;;
68076;SDS011;54866;53.458;14.540;2022-10-04T17:56:35;11.30;;;6.40;;
68076;SDS011;54866;53.458;14.540;2022-10-04T17:59:09;11.00;;;7.10;;
68076;SDS011;54866;53.458;14.540;2022-10-04T18:01:45;9.00;;;5.70;;
68076;SDS011;54866;53.458;14.540;2022-10-04T18:04:20;12.60;;;6.80;;
68076;SDS011;54866;53.458;14.540;2022-10-04T18:06:55;12.50;;;6.60;;
68076;SDS011;54866;53.458;14.540;2022-10-04T18:09:32;8.90;;;4.80;;
68076;SDS011;54866;53.458;14.540;2022-10-04T18:12:10;9.30;;;5.00;;
68076;SDS011;54866;53.458;14.540;2022-10-04T18:14:55;12.90;;;5.90;;
68076;SDS011;54866;53.458;14.540;2022-10-04T18:17:31;12.60;;;6.30;;
68076;SDS011;54866;53.458;14.540;2022-10-04T18:20:24;15.30;;;6.40;;
68076;SDS011;54866;53.458;14.540;2022-10-04T18:22:58;9.70;;;6.20;;
68076;SDS011;54866;53.458;14.540;2022-10-04T18:25:40;11.20;;;5.70;;
68076;SDS011;54866;53.458;14.540;2022-10-04T18:28:12;6.60;;;4.60;;
68076;SDS011;54866;53.458;14.540;2022-10-04T18:30:53;8.90;;;4.90;;
68076;SDS011;54866;53.458;14.540;2022-10-04T18:33:28;10.70;;;5.40;;
68076;SDS011;54866;53.458;14.540;2022-10-04T18:36:13;9.80;;;5.30;;
68076;SDS011;54866;53.458;14.540;2022-10-04T18:38:45;9.80;;;6.30;;
68076;SDS011;54866;53.458;14.540;2022-10-04T18:44:13;8.80;;;4.90;;
68076;SDS011;54866;53.458;14.540;2022-10-04T18:46:46;9.80;;;5.60;;
68076;SDS011;54866;53.458;14.540;2022-10-04T18:49:22;11.80;;;5.80;;
68076;SDS011;54866;53.458;14.540;2022-10-04T18:51:56;13.80;;;5.90;;
68076;SDS011;54866;53.458;14.540;2022-10-04T18:54:43;8.90;;;5.20;;
68076;SDS011;54866;53.458;14.540;2022-10-04T18:57:30;10.80;;;5.50;;
68076;SDS011;54866;53.458;14.540;2022-10-04T19:00:23;8.10;;;4.90;;
68076;SDS011;54866;53.458;14.540;2022-10-04T19:03:19;7.30;;;4.30;;
68076;SDS011;54866;53.458;14.540;2022-10-04T19:06:04;9.60;;;4.40;;
68076;SDS011;54866;53.458;14.540;2022-10-04T19:08:41;6.70;;;4.60;;
68076;SDS011;54866;53.458;14.540;2022-10-04T19:11:21;12.50;;;5.10;;
68076;SDS011;54866;53.458;14.540;2022-10-04T19:13:56;10.00;;;4.80;;
68076;SDS011;54866;53.458;14.540;2022-10-04T19:16:38;11.60;;;4.90;;